createdAt,value
2022-08-03T00:01:26.566Z,24.05
2022-08-03T00:03:52.934Z,24.09
2022-08-03T00:06:19.294Z,24.08
2022-08-03T00:08:45.654Z,24.07
2022-08-03T00:11:12.021Z,24.07
2022-08-03T00:13:38.377Z,24.06
2022-08-03T00:16:04.850Z,24.04
2022-08-03T00:18:31.218Z,24.04
2022-08-03T00:20:57.580Z,24.03
2022-08-03T00:23:23.951Z,24.01
2022-08-03T00:25:50.310Z,23.99
2022-08-03T00:28:16.665Z,24.00
2022-08-03T00:30:43.027Z,23.99
2022-08-03T00:33:11.082Z,23.96
2022-08-03T00:35:50.921Z,23.95
2022-08-03T00:38:17.883Z,23.94
2022-08-03T00:40:44.248Z,23.95
2022-08-03T00:43:11.498Z,23.94
2022-08-03T00:45:38.775Z,23.93
2022-08-03T00:48:05.527Z,23.93
2022-08-03T00:50:32.476Z,23.97
2022-08-03T00:52:59.151Z,23.99
2022-08-03T00:55:25.515Z,23.95
2022-08-03T00:57:51.885Z,23.95
2022-08-03T01:00:19.437Z,24.00
2022-08-03T01:02:45.782Z,24.08
2022-08-03T01:05:12.138Z,23.99
2022-08-03T01:07:57.092Z,23.94
2022-08-03T01:10:29.356Z,23.94
2022-08-03T01:12:59.546Z,23.93
2022-08-03T01:15:55.065Z,23.91
2022-08-03T01:18:22.747Z,23.93
2022-08-03T01:20:49.478Z,23.91
2022-08-03T01:23:35.844Z,23.89
2022-08-03T01:26:21.151Z,23.92
2022-08-03T01:28:59.526Z,23.92
2022-08-03T01:31:27.058Z,23.91
2022-08-03T01:33:55.667Z,23.91
2022-08-03T01:36:22.673Z,23.99
2022-08-03T01:38:50.030Z,23.89
2022-08-03T01:41:21.246Z,23.91
2022-08-03T01:44:28.643Z,23.91
2022-08-03T01:46:36.019Z,23.89
2022-08-03T01:49:09.037Z,23.91
2022-08-03T01:52:02.901Z,23.89
2022-08-03T01:54:22.787Z,23.93
2022-08-03T01:56:49.143Z,23.94
2022-08-03T01:59:15.498Z,23.93
2022-08-03T02:02:32.387Z,23.91
2022-08-03T02:04:28.177Z,23.89
2022-08-03T02:07:01.223Z,23.87
2022-08-03T02:09:29.336Z,23.85
2022-08-03T02:11:55.697Z,23.87
2022-08-03T02:14:22.099Z,23.88
2022-08-03T02:16:48.505Z,23.88
2022-08-03T02:19:14.865Z,23.88
2022-08-03T02:21:56.785Z,23.88
2022-08-03T02:24:27.559Z,23.88
2022-08-03T02:26:54.090Z,23.92
2022-08-03T02:29:21.618Z,23.88
2022-08-03T02:32:06.792Z,23.88
2022-08-03T02:34:34.761Z,23.87
2022-08-03T02:37:01.144Z,23.83
2022-08-03T02:39:27.969Z,23.84
2022-08-03T02:41:55.302Z,23.83
2022-08-03T02:44:23.909Z,23.81
2022-08-03T02:46:50.272Z,23.78
2022-08-03T02:49:42.667Z,23.79
2022-08-03T02:52:04.128Z,23.78
2022-08-03T02:54:30.503Z,23.76
2022-08-03T02:56:56.869Z,23.76
2022-08-03T02:59:23.243Z,23.78
2022-08-03T03:01:49.609Z,23.78
2022-08-03T03:04:15.962Z,23.76
2022-08-03T03:06:43.115Z,23.76
2022-08-03T03:09:13.309Z,23.76
2022-08-03T03:11:39.675Z,23.79
2022-08-03T03:14:06.042Z,23.86
2022-08-03T03:16:35.150Z,23.83
2022-08-03T03:19:01.538Z,23.80
2022-08-03T03:21:27.901Z,23.81
2022-08-03T03:23:54.254Z,23.79
2022-08-03T03:26:20.608Z,23.78
2022-08-03T03:28:47.145Z,23.79
2022-08-03T03:31:13.511Z,23.77
2022-08-03T03:33:39.871Z,23.79
2022-08-03T03:36:06.462Z,23.77
2022-08-03T03:38:32.818Z,23.77
2022-08-03T03:40:59.346Z,23.77
2022-08-03T03:43:25.754Z,23.78
2022-08-03T03:45:53.607Z,23.76
2022-08-03T03:48:19.970Z,23.77
2022-08-03T03:50:46.327Z,23.76
2022-08-03T03:53:13.106Z,23.79
2022-08-03T03:55:59.740Z,23.79
2022-08-03T03:58:26.491Z,23.76
2022-08-03T04:00:53.838Z,23.74
2022-08-03T04:03:20.355Z,23.79
2022-08-03T04:06:05.266Z,23.69
2022-08-03T04:08:50.346Z,23.52
2022-08-03T04:11:17.654Z,23.23
2022-08-03T04:13:50.998Z,22.97
2022-08-03T04:16:18.156Z,22.87
2022-08-03T04:18:44.893Z,23.01
2022-08-03T04:21:11.339Z,22.89
2022-08-03T04:23:37.977Z,22.84
2022-08-03T04:26:04.345Z,22.59
2022-08-03T04:28:31.976Z,22.56
2022-08-03T04:30:59.242Z,22.79
2022-08-03T04:33:26.364Z,22.64
2022-08-03T04:36:01.983Z,22.63
2022-08-03T04:38:30.058Z,22.65
2022-08-03T04:40:56.399Z,22.72
2022-08-03T04:43:22.770Z,22.80
2022-08-03T04:45:49.546Z,22.62
2022-08-03T04:48:15.933Z,22.65
2022-08-03T04:50:42.303Z,22.53
2022-08-03T04:53:08.915Z,22.72
2022-08-03T04:55:35.897Z,22.81
2022-08-03T04:58:02.393Z,22.73
2022-08-03T05:00:28.766Z,22.80
2022-08-03T05:02:55.378Z,22.86
2022-08-03T05:05:21.833Z,22.87
2022-08-03T05:07:49.951Z,22.87
2022-08-03T05:10:16.961Z,22.89
2022-08-03T05:12:43.687Z,22.82
2022-08-03T05:15:10.210Z,22.81
2022-08-03T05:17:36.850Z,22.87
2022-08-03T05:20:04.366Z,22.97
2022-08-03T05:22:30.723Z,23.07
2022-08-03T05:24:57.612Z,23.11
2022-08-03T05:27:23.983Z,23.14
2022-08-03T05:29:50.358Z,23.16
2022-08-03T05:32:16.890Z,23.18
2022-08-03T05:34:43.304Z,23.18
2022-08-03T05:37:09.767Z,23.19
2022-08-03T05:39:36.142Z,23.21
2022-08-03T05:42:02.493Z,23.23
2022-08-03T05:44:28.883Z,23.23
2022-08-03T05:46:57.135Z,23.25
2022-08-03T05:49:23.591Z,23.27
2022-08-03T05:52:00.106Z,23.26
2022-08-03T05:54:57.463Z,23.28
2022-08-03T05:57:22.694Z,23.29
2022-08-03T05:59:56.417Z,23.30
2022-08-03T06:02:25.871Z,23.31
2022-08-03T06:04:52.251Z,23.32
2022-08-03T06:07:18.598Z,23.31
2022-08-03T06:10:34.149Z,23.33
2022-08-03T06:12:31.318Z,23.33
2022-08-03T06:14:57.700Z,23.35
2022-08-03T06:17:24.075Z,23.34
2022-08-03T06:19:53.630Z,23.34
2022-08-03T06:22:20.165Z,23.36
2022-08-03T06:24:53.343Z,23.37
2022-08-03T06:27:20.501Z,23.36
2022-08-03T06:30:03.411Z,23.39
2022-08-03T06:32:29.766Z,23.38
2022-08-03T06:34:56.135Z,23.42
2022-08-03T06:37:23.223Z,23.41
2022-08-03T06:39:49.590Z,23.40
2022-08-03T06:42:16.162Z,23.41
2022-08-03T06:44:42.644Z,23.41
2022-08-03T06:47:08.997Z,23.41
2022-08-03T06:49:35.422Z,23.41
2022-08-03T06:52:05.154Z,23.42
2022-08-03T06:54:33.481Z,23.44
2022-08-03T06:56:59.888Z,23.44
2022-08-03T07:00:07.919Z,23.44
2022-08-03T07:02:12.594Z,23.45
2022-08-03T07:04:45.571Z,23.45
2022-08-03T07:07:11.927Z,23.46
2022-08-03T07:09:38.299Z,23.47
2022-08-03T07:12:06.595Z,23.47
2022-08-03T07:14:32.970Z,23.47
2022-08-03T07:16:59.330Z,23.48
2022-08-03T07:19:26.024Z,23.49
2022-08-03T07:21:53.633Z,23.49
2022-08-03T07:24:20.093Z,23.49
2022-08-03T07:26:46.453Z,23.50
2022-08-03T07:29:14.693Z,23.50
2022-08-03T07:31:42.118Z,23.51
2022-08-03T07:34:08.477Z,23.51
2022-08-03T07:36:34.844Z,23.51
2022-08-03T07:39:01.234Z,23.51
2022-08-03T07:41:42.405Z,23.51
2022-08-03T07:44:08.763Z,23.51
2022-08-03T07:46:35.115Z,23.52
2022-08-03T07:49:01.703Z,23.52
2022-08-03T07:51:28.126Z,23.54
2022-08-03T07:53:57.584Z,23.55
2022-08-03T07:56:24.988Z,23.55
2022-08-03T07:58:51.695Z,23.56
2022-08-03T08:01:19.469Z,23.55
2022-08-03T08:03:52.608Z,23.56
2022-08-03T08:06:19.970Z,23.56
2022-08-03T08:08:46.461Z,23.55
2022-08-03T08:11:12.855Z,23.56
2022-08-03T08:13:39.202Z,23.56
2022-08-03T08:16:05.643Z,23.56
2022-08-03T08:18:32.457Z,23.57
2022-08-03T08:20:58.814Z,23.57
2022-08-03T08:23:43.808Z,23.57
2022-08-03T08:26:11.501Z,23.59
2022-08-03T08:28:37.866Z,23.59
2022-08-03T08:31:04.217Z,23.59
2022-08-03T08:34:01.085Z,23.59
2022-08-03T08:36:17.244Z,23.59
2022-08-03T08:38:44.902Z,23.59
2022-08-03T08:41:11.321Z,23.60
2022-08-03T08:43:37.680Z,23.60
2022-08-03T08:46:05.105Z,23.60
2022-08-03T08:48:31.933Z,23.61
2022-08-03T08:50:58.362Z,23.60
2022-08-03T08:53:28.740Z,23.62
2022-08-03T08:56:01.618Z,23.61
2022-08-03T08:58:34.553Z,23.63
2022-08-03T09:01:00.997Z,23.62
2022-08-03T09:03:29.949Z,23.62
2022-08-03T09:05:56.956Z,23.63
2022-08-03T09:08:23.382Z,23.63
2022-08-03T09:10:49.750Z,23.62
2022-08-03T09:13:16.120Z,23.63
2022-08-03T09:15:42.489Z,23.63
2022-08-03T09:18:32.645Z,23.63
2022-08-03T09:21:30.099Z,23.64
2022-08-03T09:24:06.114Z,23.65
2022-08-03T09:26:34.240Z,23.66
2022-08-03T09:29:05.994Z,23.66
2022-08-03T09:31:36.923Z,23.66
2022-08-03T09:34:06.711Z,23.66
2022-08-03T09:36:39.871Z,23.67
2022-08-03T09:39:07.258Z,23.68
2022-08-03T09:41:33.623Z,23.69
2022-08-03T09:43:59.981Z,23.69
2022-08-03T09:46:28.405Z,23.69
2022-08-03T09:48:54.784Z,23.68
2022-08-03T09:52:27.305Z,23.69
2022-08-03T09:54:17.601Z,23.69
2022-08-03T09:56:47.154Z,23.69
2022-08-03T09:59:13.979Z,23.69
2022-08-03T10:01:43.166Z,23.70
2022-08-03T10:04:13.997Z,23.70
2022-08-03T10:06:40.375Z,23.70
2022-08-03T10:09:07.319Z,23.70
2022-08-03T10:11:40.988Z,23.71
2022-08-03T10:14:08.852Z,23.71
2022-08-03T10:16:35.775Z,23.71
2022-08-03T10:19:03.133Z,23.70
2022-08-03T10:21:31.843Z,23.72
2022-08-03T10:23:58.201Z,23.72
2022-08-03T10:26:24.547Z,23.73
2022-08-03T10:28:50.955Z,23.73
2022-08-03T10:31:17.338Z,23.73
2022-08-03T10:33:50.926Z,23.77
2022-08-03T10:36:19.010Z,23.82
2022-08-03T10:38:47.239Z,23.82
2022-08-03T10:41:13.970Z,23.83
2022-08-03T10:43:49.094Z,23.83
2022-08-03T10:46:15.955Z,23.83
2022-08-03T10:48:42.327Z,23.83
2022-08-03T10:51:08.703Z,23.84
2022-08-03T10:53:35.794Z,23.85
2022-08-03T10:56:35.447Z,23.86
2022-08-03T10:59:08.953Z,23.86
2022-08-03T11:02:00.372Z,23.85
2022-08-03T11:04:29.216Z,23.87
2022-08-03T11:07:15.580Z,23.87
2022-08-03T11:09:42.490Z,23.86
2022-08-03T11:12:21.619Z,23.86
2022-08-03T11:14:57.842Z,23.86
2022-08-03T11:17:24.216Z,23.86
2022-08-03T11:19:57.503Z,23.87
2022-08-03T11:22:25.028Z,23.92
2022-08-03T11:24:57.673Z,23.92
2022-08-03T11:27:33.559Z,23.93
2022-08-03T11:30:01.007Z,23.93
2022-08-03T11:32:50.243Z,23.92
2022-08-03T11:35:17.237Z,23.92
2022-08-03T11:38:05.017Z,23.92
2022-08-03T11:40:34.780Z,23.92
2022-08-03T11:43:01.377Z,23.92
2022-08-03T11:45:28.009Z,23.94
2022-08-03T11:47:54.586Z,23.94
2022-08-03T11:50:21.332Z,23.96
2022-08-03T11:52:48.118Z,23.98
2022-08-03T11:55:14.922Z,24.01
2022-08-03T11:59:12.973Z,24.01
2022-08-03T12:00:31.113Z,24.01
2022-08-03T12:03:01.263Z,24.02
2022-08-03T12:05:34.461Z,24.02
2022-08-03T12:08:04.021Z,24.03
2022-08-03T12:10:32.628Z,24.02
2022-08-03T12:12:59.410Z,24.04
2022-08-03T12:15:29.381Z,24.03
2022-08-03T12:17:57.823Z,24.03
2022-08-03T12:20:31.428Z,24.06
2022-08-03T12:23:04.974Z,24.06
2022-08-03T12:25:39.423Z,24.07
2022-08-03T12:28:35.957Z,24.07
2022-08-03T12:31:00.555Z,24.11
2022-08-03T12:33:27.080Z,24.14
2022-08-03T12:36:04.419Z,24.13
2022-08-03T12:38:31.562Z,24.13
2022-08-03T12:41:03.849Z,24.14
2022-08-03T12:43:30.240Z,24.14
2022-08-03T12:46:13.045Z,24.16
2022-08-03T12:49:01.581Z,24.17
2022-08-03T12:51:28.460Z,24.17
2022-08-03T12:53:54.992Z,24.18
2022-08-03T12:56:21.372Z,24.19
2022-08-03T12:58:47.871Z,24.21
2022-08-03T13:01:14.348Z,24.21
2022-08-03T13:03:42.782Z,24.21
2022-08-03T13:06:13.705Z,24.21
2022-08-03T13:08:40.162Z,24.21
2022-08-03T13:11:50.580Z,24.26
2022-08-03T13:14:13.630Z,24.27
2022-08-03T13:16:46.227Z,24.28
2022-08-03T13:19:15.797Z,24.28
2022-08-03T13:21:53.627Z,24.28
2022-08-03T13:24:29.289Z,24.30
2022-08-03T13:26:56.936Z,24.27
2022-08-03T13:29:23.297Z,24.29
2022-08-03T13:31:50.307Z,24.30
2022-08-03T13:34:22.276Z,24.32
2022-08-03T13:39:57.993Z,24.32
2022-08-03T13:42:22.391Z,24.32
2022-08-03T13:44:48.767Z,24.32
2022-08-03T13:47:15.124Z,24.32
2022-08-03T13:49:41.509Z,24.32
2022-08-03T13:52:07.869Z,24.32
2022-08-03T13:54:34.243Z,24.32
2022-08-03T13:57:00.796Z,24.32
2022-08-03T13:59:47.126Z,24.33
2022-08-03T14:02:13.520Z,24.32
2022-08-03T14:04:39.971Z,24.33
2022-08-03T14:07:06.335Z,24.33
2022-08-03T14:09:32.698Z,24.33
2022-08-03T14:12:07.205Z,24.33
2022-08-03T14:14:34.920Z,24.34
2022-08-03T14:17:01.269Z,24.35
2022-08-03T14:19:28.825Z,24.34
2022-08-03T14:22:03.720Z,24.31
2022-08-03T14:24:33.095Z,24.36
2022-08-03T14:27:05.918Z,24.35
2022-08-03T14:29:35.207Z,24.36
2022-08-03T14:32:10.798Z,24.37
2022-08-03T14:34:39.137Z,24.37
2022-08-03T14:37:05.558Z,24.37
2022-08-03T14:39:59.875Z,24.38
2022-08-03T14:42:18.443Z,24.38
2022-08-03T14:44:44.874Z,24.38
2022-08-03T14:47:11.251Z,24.37
2022-08-03T14:50:36.171Z,24.37
2022-08-03T14:52:24.307Z,24.38
2022-08-03T14:54:50.693Z,24.38
2022-08-03T14:57:17.137Z,24.38
2022-08-03T14:59:55.826Z,24.38
2022-08-03T15:02:24.041Z,24.38
2022-08-03T15:04:50.756Z,24.39
2022-08-03T15:07:17.249Z,24.38
2022-08-03T15:09:43.686Z,24.39
2022-08-03T15:12:10.040Z,24.40
2022-08-03T15:14:37.916Z,24.40
2022-08-03T15:17:04.369Z,24.40
2022-08-03T15:20:01.596Z,24.41
2022-08-03T15:22:20.415Z,24.41
2022-08-03T15:24:47.231Z,24.41
2022-08-03T15:27:13.583Z,24.40
2022-08-03T15:30:07.175Z,24.41
2022-08-03T15:32:26.351Z,24.41
2022-08-03T15:34:52.797Z,24.42
2022-08-03T15:37:20.587Z,24.42
2022-08-03T15:39:59.105Z,24.43
2022-08-03T15:42:27.113Z,24.43
2022-08-03T15:44:53.828Z,24.42
2022-08-03T15:47:21.352Z,24.42
2022-08-03T15:49:47.924Z,24.42
2022-08-03T15:52:14.275Z,24.43
2022-08-03T15:54:40.656Z,24.43
2022-08-03T15:57:07.036Z,24.44
2022-08-03T15:59:33.431Z,24.44
2022-08-03T16:01:59.862Z,24.44
2022-08-03T16:04:26.267Z,24.45
2022-08-03T16:06:52.635Z,24.44
2022-08-03T16:09:23.678Z,24.44
2022-08-03T16:12:05.507Z,24.45
2022-08-03T16:14:51.464Z,24.48
2022-08-03T16:17:19.156Z,24.46
2022-08-03T16:19:45.829Z,24.46
2022-08-03T16:22:12.806Z,24.46
2022-08-03T16:24:40.785Z,24.46
2022-08-03T16:27:15.586Z,24.49
2022-08-03T16:29:44.067Z,24.49
2022-08-03T16:32:10.536Z,24.49
2022-08-03T16:34:37.157Z,24.51
2022-08-03T16:37:22.121Z,24.52
2022-08-03T16:39:49.931Z,24.53
2022-08-03T16:42:16.300Z,24.54
2022-08-03T16:44:42.938Z,24.56
2022-08-03T16:47:09.298Z,24.55
2022-08-03T16:49:53.762Z,24.56
2022-08-03T16:52:21.986Z,24.56
2022-08-03T16:54:53.210Z,24.57
2022-08-03T16:57:59.291Z,24.59
2022-08-03T17:00:07.776Z,24.60
2022-08-03T17:02:34.782Z,24.61
2022-08-03T17:05:02.814Z,24.60
2022-08-03T17:07:30.376Z,24.62
2022-08-03T17:09:56.867Z,24.63
2022-08-03T17:12:26.014Z,24.67
2022-08-03T17:14:53.489Z,24.73
2022-08-03T17:17:22.466Z,24.72
2022-08-03T17:19:55.150Z,24.73
2022-08-03T17:22:23.179Z,24.74
2022-08-03T17:24:50.200Z,24.72
2022-08-03T17:28:49.289Z,24.75
2022-08-03T17:30:15.799Z,24.72
2022-08-03T17:32:56.687Z,24.74
2022-08-03T17:35:23.626Z,24.73
2022-08-03T17:38:03.108Z,24.74
2022-08-03T17:40:33.226Z,24.75
2022-08-03T17:43:00.632Z,24.75
2022-08-03T17:45:52.118Z,24.83
2022-08-03T17:48:18.377Z,24.90
2022-08-03T17:51:05.194Z,24.85
2022-08-03T17:53:34.063Z,24.82
2022-08-03T17:56:09.944Z,24.82
2022-08-03T17:59:08.984Z,24.81
2022-08-03T18:02:26.501Z,24.86
2022-08-03T18:05:02.203Z,24.91
2022-08-03T18:07:45.167Z,24.91
2022-08-03T18:10:15.892Z,24.95
2022-08-03T18:12:57.496Z,24.93
2022-08-03T18:15:30.637Z,24.93
2022-08-03T18:18:02.615Z,24.90
2022-08-03T18:20:33.172Z,24.88
2022-08-03T18:23:07.172Z,24.90
2022-08-03T18:25:44.467Z,25.00
2022-08-03T18:28:15.705Z,24.94
2022-08-03T18:30:53.603Z,24.92
2022-08-03T18:34:19.338Z,24.95
2022-08-03T18:36:18.147Z,24.97
2022-08-03T18:38:49.256Z,24.99
2022-08-03T18:41:20.555Z,24.96
2022-08-03T18:44:07.070Z,24.95
2022-08-03T18:46:38.102Z,24.91
2022-08-03T18:49:20.001Z,24.93
2022-08-03T18:51:47.082Z,24.91
2022-08-03T18:54:58.928Z,24.89
2022-08-03T18:57:07.347Z,24.94
2022-08-03T18:59:46.039Z,24.94
2022-08-03T19:02:21.232Z,24.94
2022-08-03T19:04:47.832Z,24.93
2022-08-03T19:07:17.125Z,24.94
2022-08-03T19:09:54.533Z,24.93
2022-08-03T19:12:40.314Z,24.93
2022-08-03T19:15:10.357Z,24.93
2022-08-03T19:20:34.812Z,24.93
2022-08-03T19:23:01.539Z,24.94
2022-08-03T19:25:35.212Z,24.99
2022-08-03T19:28:02.953Z,24.93
2022-08-03T19:30:39.885Z,24.91
2022-08-03T19:33:07.321Z,24.91
2022-08-03T19:35:51.773Z,24.91
2022-08-03T19:38:21.928Z,24.91
2022-08-03T19:40:56.446Z,24.91
2022-08-03T19:43:33.006Z,24.91
2022-08-03T19:46:13.106Z,24.90
2022-08-03T19:48:42.263Z,24.90
2022-08-03T19:51:12.083Z,24.89
2022-08-03T19:53:43.098Z,24.89
2022-08-03T19:56:12.732Z,24.88
2022-08-03T19:58:39.896Z,24.88
2022-08-03T20:01:19.125Z,24.88
2022-08-03T20:03:48.179Z,24.88
2022-08-03T20:06:18.165Z,24.88
2022-08-03T20:08:44.739Z,24.88
2022-08-03T20:11:14.545Z,24.87
2022-08-03T20:13:40.912Z,24.88
2022-08-03T20:16:07.699Z,24.86
2022-08-03T20:18:39.261Z,24.83
2022-08-03T20:21:15.210Z,24.73
2022-08-03T20:24:01.636Z,24.66
2022-08-03T20:26:28.668Z,24.64
2022-08-03T20:28:55.858Z,24.63
2022-08-03T20:31:32.472Z,24.64
2022-08-03T20:34:02.680Z,24.64
2022-08-03T20:36:29.079Z,24.65
2022-08-03T20:38:58.184Z,24.72
2022-08-03T20:41:24.719Z,24.64
2022-08-03T20:43:51.150Z,24.62
2022-08-03T20:46:31.355Z,24.64
2022-08-03T20:49:04.024Z,24.60
2022-08-03T20:51:48.909Z,24.67
2022-08-03T20:54:29.201Z,24.62
2022-08-03T20:56:58.250Z,24.65
2022-08-03T20:59:28.743Z,24.66
2022-08-03T21:01:57.010Z,24.57
2022-08-03T21:04:23.890Z,24.56
2022-08-03T21:06:53.405Z,24.61
2022-08-03T21:09:20.165Z,24.40
2022-08-03T21:11:49.082Z,24.42
2022-08-03T21:13:09.559Z,24.93
2022-08-03T21:14:20.492Z,24.38
2022-08-03T21:16:46.913Z,24.51
2022-08-03T21:19:13.345Z,24.53
2022-08-03T21:21:39.772Z,24.49
2022-08-03T21:24:06.386Z,24.52
2022-08-03T21:26:33.458Z,24.40
2022-08-03T21:29:00.735Z,24.37
2022-08-03T21:31:27.257Z,24.42
2022-08-03T21:33:57.010Z,24.45
2022-08-03T21:36:23.849Z,24.40
2022-08-03T21:38:56.340Z,24.40
2022-08-03T21:41:24.313Z,24.35
2022-08-03T21:43:50.747Z,24.27
2022-08-03T21:46:17.173Z,24.21
2022-08-03T21:48:44.773Z,24.23
2022-08-03T21:51:12.263Z,24.14
2022-08-03T21:54:02.309Z,24.22
2022-08-03T21:56:25.072Z,24.07
2022-08-03T21:58:55.058Z,24.03
2022-08-03T22:01:25.136Z,24.18
2022-08-03T22:03:55.068Z,24.28
2022-08-03T22:06:22.720Z,24.29
2022-08-03T22:08:53.522Z,24.25
2022-08-03T22:11:20.322Z,24.14
2022-08-03T22:13:46.731Z,24.14
2022-08-03T22:16:13.379Z,24.14
2022-08-03T22:18:39.937Z,24.22
2022-08-03T22:21:06.904Z,24.22
2022-08-03T22:23:34.421Z,24.14
2022-08-03T22:26:01.607Z,24.15
2022-08-03T22:28:28.896Z,24.00
2022-08-03T22:30:55.262Z,23.99
2022-08-03T22:33:21.622Z,23.95
2022-08-03T22:35:49.344Z,24.00
2022-08-03T22:38:16.455Z,23.97
2022-08-03T22:40:42.819Z,23.98
2022-08-03T22:43:09.194Z,23.99
2022-08-03T22:46:07.155Z,23.88
2022-08-03T22:48:21.907Z,23.97
2022-08-03T22:50:48.401Z,24.02
2022-08-03T22:53:23.702Z,24.04
2022-08-03T22:55:50.344Z,24.00
2022-08-03T22:58:16.833Z,24.02
2022-08-03T23:01:06.465Z,23.96
2022-08-03T23:04:00.311Z,24.03
2022-08-03T23:06:21.281Z,23.95
2022-08-03T23:08:47.655Z,23.93
2022-08-03T23:11:14.026Z,23.92
2022-08-03T23:13:40.394Z,23.96
2022-08-03T23:16:07.257Z,23.91
2022-08-03T23:18:37.527Z,23.92
2022-08-03T23:21:06.021Z,23.85
2022-08-03T23:23:44.514Z,23.90
2022-08-03T23:26:11.475Z,23.80
2022-08-03T23:28:37.814Z,23.85
2022-08-03T23:31:04.180Z,23.89
2022-08-03T23:33:30.539Z,23.90
2022-08-03T23:36:18.755Z,23.78
2022-08-03T23:38:43.452Z,23.76
2022-08-03T23:41:09.816Z,23.75
2022-08-03T23:43:52.329Z,23.73
2022-08-03T23:46:21.107Z,23.70
2022-08-03T23:48:47.482Z,23.77
2022-08-03T23:51:18.111Z,23.82
2022-08-03T23:53:46.185Z,23.74
2022-08-03T23:56:13.733Z,23.76
2022-08-03T23:58:42.969Z,23.66
